Vitoria de Santo Antao, Brazil
Current Conditions -  °F | °C
As of 2:00 AM on Sunday 26 Oct 2014 (Local Time) from SBRF Reporting Station
Scattered Clouds Scattered Clouds  
Wind Chill: 77°   Ceiling: Unl
Heat Index: 79°   Visibility: 6mi
Dew Point: 70°   Wind: 8mph
Humidity: 78%   Direction: 100°E
Pressure: 29.88"   Gusts: NA
Location:  8.12°S, 35.29°W
Report Text: SBRF 260500Z 10007KT 9999 SCT023 25/21 Q1012
Loading
Personal Weather Stations






























Interactive Weather Map
Tropical Storm Tracking
New forecast layout! Learn more

10-Day Weather Forecast

Advertisements
Track Severe Weather on mobile